Time;durP1;ratioP1;P1;durP2;ratioP2;P2;SDS_P1;SDS_P2;PMS_P1;PMS_P2;Temp;Humidity;BMP_temperature;BMP_pressure;BME280_temperature;BME280_humidity;BME280_pressure;Samples;Min_cycle;Max_cycle;Signal;HPM_P1;HPM_P2
2022/07/23 00:02:20;;;;;;;9.50;8.80;;;20.10;1.00;;;;;;5033457;28;20190;-54
2022/07/23 00:04:46;;;;;;;10.20;9.50;;;20.00;1.00;;;;;;5041442;28;20473;-54
2022/07/23 00:07:12;;;;;;;9.97;9.27;;;20.00;1.00;;;;;;5028216;28;20641;-55
2022/07/23 00:09:37;;;;;;;9.93;9.23;;;19.90;1.00;;;;;;5038171;28;20743;-49
2022/07/23 00:12:03;;;;;;;9.17;8.57;;;19.90;1.00;;;;;;5041669;28;20202;-54
2022/07/23 00:14:29;;;;;;;10.20;9.40;;;19.90;1.00;;;;;;5038732;28;20702;-56
2022/07/23 00:16:54;;;;;;;10.47;9.60;;;19.80;1.00;;;;;;5043962;28;20494;-51
2022/07/23 00:19:20;;;;;;;10.10;9.20;;;19.80;1.00;;;;;;5032546;28;20182;-54
2022/07/23 00:21:46;;;;;;;10.40;9.70;;;19.80;1.00;;;;;;5030129;28;20178;-52
2022/07/23 00:24:11;;;;;;;10.50;9.80;;;19.70;1.00;;;;;;5040005;28;20194;-53
2022/07/23 00:26:37;;;;;;;10.10;9.40;;;19.70;1.00;;;;;;5040247;28;20210;-54
2022/07/23 00:29:02;;;;;;;10.10;9.30;;;19.60;1.00;;;;;;5042024;28;20662;-52
2022/07/23 00:31:28;;;;;;;10.03;9.13;;;19.60;1.00;;;;;;5042719;28;20186;-55
2022/07/23 00:33:56;;;;;;;10.23;9.33;;;19.50;1.00;;;;;;5023706;28;20234;-56
2022/07/23 00:36:23;;;;;;;10.20;9.50;;;19.50;1.00;;;;;;5034189;28;20198;-54
2022/07/23 00:38:49;;;;;;;10.57;9.77;;;19.50;1.00;;;;;;5034270;28;20441;-54
2022/07/23 00:41:15;;;;;;;11.03;10.23;;;19.40;1.00;;;;;;5036769;28;20524;-54
2022/07/23 00:43:42;;;;;;;10.73;9.83;;;19.30;1.00;;;;;;5029227;28;21299;-54
2022/07/23 00:46:07;;;;;;;10.93;10.13;;;19.30;1.00;;;;;;5039522;28;20934;-52
2022/07/23 00:48:33;;;;;;;11.00;10.20;;;19.30;1.00;;;;;;5042124;28;20426;-52
2022/07/23 00:50:59;;;;;;;11.93;11.03;;;19.30;1.00;;;;;;5040681;28;20541;-52
2022/07/23 00:53:25;;;;;;;11.60;10.47;;;19.30;1.00;;;;;;5030973;28;20211;-55
2022/07/23 00:55:51;;;;;;;12.60;11.40;;;19.30;1.00;;;;;;5040794;28;20205;-52
2022/07/23 00:58:18;;;;;;;12.90;11.80;;;19.30;1.00;;;;;;5028175;28;21057;-53
2022/07/23 01:00:43;;;;;;;11.30;10.50;;;19.30;1.00;;;;;;5044851;28;20438;-59
2022/07/23 01:03:09;;;;;;;12.50;11.40;;;19.20;1.00;;;;;;5032031;28;20444;-60
2022/07/23 01:05:35;;;;;;;13.70;12.50;;;19.30;1.00;;;;;;5032703;28;20191;-60
2022/07/23 01:08:01;;;;;;;11.43;10.63;;;19.30;1.00;;;;;;5044056;28;20652;-60
2022/07/23 01:10:32;;;;;;;12.13;11.23;;;19.20;1.00;;;;;;5035314;28;20187;-61
2022/07/23 01:13:00;;;;;;;11.63;10.83;;;19.30;1.00;;;;;;5042561;28;20812;-59
2022/07/23 01:15:26;;;;;;;12.17;11.17;;;19.20;1.00;;;;;;5033340;28;21116;-59
2022/07/23 01:17:52;;;;;;;11.53;10.50;;;19.20;1.00;;;;;;5044660;28;20543;-60
2022/07/23 01:20:17;;;;;;;12.10;11.03;;;19.20;1.00;;;;;;5030137;28;20273;-60
2022/07/23 01:22:44;;;;;;;11.40;10.50;;;19.20;1.00;;;;;;5032613;28;20241;-60
2022/07/23 01:25:09;;;;;;;11.30;10.40;;;19.20;1.00;;;;;;5039570;28;20645;-61
2022/07/23 01:27:35;;;;;;;11.57;10.77;;;19.20;1.00;;;;;;5031793;28;20463;-61
2022/07/23 01:30:03;;;;;;;11.50;10.70;;;19.20;1.00;;;;;;5046306;28;20519;-60
2022/07/23 01:32:29;;;;;;;11.53;10.60;;;19.20;1.00;;;;;;5033529;28;20232;-61
2022/07/23 01:34:54;;;;;;;11.50;10.67;;;19.20;1.00;;;;;;5031445;28;20888;-60
2022/07/23 01:37:20;;;;;;;10.97;10.17;;;19.20;1.00;;;;;;5037883;28;20187;-60
2022/07/23 01:39:45;;;;;;;12.07;11.07;;;19.20;1.00;;;;;;5048936;28;20544;-59
2022/07/23 01:42:11;;;;;;;11.50;10.60;;;19.20;1.00;;;;;;5036019;28;20182;-60
2022/07/23 01:44:37;;;;;;;12.30;11.30;;;19.20;1.00;;;;;;5046522;28;20265;-61
2022/07/23 01:47:03;;;;;;;12.07;11.17;;;19.10;1.00;;;;;;5044185;28;21015;-60
2022/07/23 01:49:28;;;;;;;12.90;11.80;;;19.10;1.00;;;;;;5030200;28;20237;-60
2022/07/23 01:52:00;;;;;;;12.30;11.40;;;19.10;1.00;;;;;;5040181;28;20915;-60
2022/07/23 01:54:30;;;;;;;12.23;11.33;;;19.10;1.00;;;;;;5035991;28;20213;-60
2022/07/23 01:56:56;;;;;;;12.47;11.57;;;19.00;1.00;;;;;;5034767;28;21254;-59
2022/07/23 01:59:22;;;;;;;12.20;11.40;;;19.00;1.00;;;;;;5030530;28;20512;-60
2022/07/23 02:01:50;;;;;;;12.10;11.20;;;18.90;1.00;;;;;;5027775;28;20485;-60
2022/07/23 02:04:16;;;;;;;11.70;10.80;;;18.90;1.00;;;;;;5031739;28;20190;-60
2022/07/23 02:06:42;;;;;;;11.80;10.90;;;18.90;1.00;;;;;;5039199;28;20448;-56
2022/07/23 02:09:07;;;;;;;12.07;11.17;;;18.80;1.00;;;;;;5029390;28;20430;-60
2022/07/23 02:11:33;;;;;;;11.83;10.77;;;18.80;1.00;;;;;;5029257;28;20189;-60
2022/07/23 02:13:59;;;;;;;12.30;11.30;;;18.80;1.00;;;;;;5033913;28;20241;-60
2022/07/23 02:16:24;;;;;;;12.80;11.60;;;18.80;1.00;;;;;;5028994;28;20179;-60
2022/07/23 02:18:50;;;;;;;12.17;10.97;;;18.80;1.00;;;;;;5040914;28;20651;-61
2022/07/23 02:21:16;;;;;;;11.80;10.90;;;18.70;1.00;;;;;;5039318;28;20179;-59
2022/07/23 02:23:41;;;;;;;11.40;10.50;;;18.70;1.00;;;;;;5031164;28;20187;-61
2022/07/23 02:26:07;;;;;;;12.47;10.30;;;18.70;1.00;;;;;;5027728;28;20274;-60
2022/07/23 02:28:32;;;;;;;11.80;10.90;;;18.70;1.00;;;;;;5051094;28;20224;-60
2022/07/23 02:30:58;;;;;;;11.90;10.80;;;18.60;1.00;;;;;;5040661;28;20194;-60
2022/07/23 02:33:24;;;;;;;11.20;10.40;;;18.60;1.00;;;;;;5041000;28;20214;-59
2022/07/23 02:35:49;;;;;;;12.13;11.23;;;18.60;1.00;;;;;;5043460;28;20200;-59
2022/07/23 02:38:15;;;;;;;12.10;11.10;;;18.60;1.00;;;;;;5033785;28;20191;-59
2022/07/23 02:40:40;;;;;;;11.37;10.37;;;18.60;1.00;;;;;;5042491;28;20635;-60
2022/07/23 02:43:06;;;;;;;11.73;10.80;;;18.60;1.00;;;;;;5027374;28;20179;-60
2022/07/23 02:45:32;;;;;;;12.23;11.10;;;18.60;1.00;;;;;;5027516;28;20278;-60
2022/07/23 02:47:57;;;;;;;12.37;11.37;;;18.60;1.00;;;;;;5029783;28;20614;-60
2022/07/23 02:50:23;;;;;;;12.40;11.40;;;18.60;1.00;;;;;;5029891;28;20187;-58
2022/07/23 02:52:49;;;;;;;10.87;10.07;;;18.60;1.00;;;;;;5030789;28;20300;-59
2022/07/23 02:55:14;;;;;;;12.13;11.10;;;18.60;1.00;;;;;;5036970;28;20187;-59
2022/07/23 02:57:40;;;;;;;11.93;11.03;;;18.60;1.00;;;;;;5037902;28;20646;-60
2022/07/23 03:00:07;;;;;;;12.57;11.57;;;18.60;1.00;;;;;;5025389;28;20231;-59
2022/07/23 03:02:32;;;;;;;13.23;11.93;;;18.60;1.00;;;;;;5024300;28;20962;-55
2022/07/23 03:04:58;;;;;;;11.87;10.97;;;18.60;1.00;;;;;;5034173;28;20444;-60
2022/07/23 03:07:24;;;;;;;12.50;11.50;;;18.60;1.00;;;;;;5045247;28;20201;-54
2022/07/23 03:09:49;;;;;;;12.03;11.03;;;18.60;1.00;;;;;;5035183;28;20190;-54
2022/07/23 03:12:15;;;;;;;12.97;11.97;;;18.60;1.00;;;;;;5027896;28;20211;-52
2022/07/23 03:14:41;;;;;;;13.10;12.00;;;18.60;1.00;;;;;;5029081;28;20320;-54
2022/07/23 03:17:07;;;;;;;12.07;11.17;;;18.60;1.00;;;;;;5040412;28;20193;-50
2022/07/23 03:19:32;;;;;;;12.60;11.60;;;18.60;1.40;;;;;;5045020;28;20420;-55
2022/07/23 03:21:59;;;;;;;11.77;10.97;;;18.60;1.00;;;;;;5030832;28;20198;-52
2022/07/23 03:24:53;;;;;;;12.50;11.50;;;18.60;1.00;;;;;;5028888;28;20190;-54
2022/07/23 03:27:10;;;;;;;12.33;11.33;;;18.60;1.00;;;;;;5027895;28;20783;-54
2022/07/23 03:29:36;;;;;;;12.97;11.87;;;18.60;1.00;;;;;;5031917;28;20437;-53
2022/07/23 03:32:05;;;;;;;12.70;11.50;;;18.60;1.00;;;;;;5032639;28;20448;-55
2022/07/23 03:34:31;;;;;;;12.37;11.37;;;18.60;1.00;;;;;;5030259;28;20520;-52
2022/07/23 03:36:57;;;;;;;12.20;11.30;;;18.60;1.00;;;;;;5027023;28;20518;-52
2022/07/23 03:39:22;;;;;;;12.57;11.57;;;18.60;1.00;;;;;;5023437;28;20191;-54
2022/07/23 03:41:48;;;;;;;11.67;10.80;;;18.60;1.00;;;;;;5027643;28;20287;-55
2022/07/23 03:44:14;;;;;;;12.47;11.43;;;18.60;1.00;;;;;;5029214;28;20187;-55
2022/07/23 03:46:39;;;;;;;12.67;11.77;;;18.60;1.00;;;;;;5035988;28;20205;-53
2022/07/23 03:49:05;;;;;;;11.77;10.80;;;18.60;1.00;;;;;;5031491;28;20262;-51
2022/07/23 03:51:30;;;;;;;12.30;11.20;;;18.60;1.00;;;;;;5031302;28;20215;-54
2022/07/23 03:53:56;;;;;;;11.57;10.63;;;18.70;1.00;;;;;;5037376;28;20209;-54
2022/07/23 03:56:21;;;;;;;12.57;11.40;;;18.70;1.00;;;;;;5035809;28;20285;-55
2022/07/23 03:58:47;;;;;;;12.67;11.67;;;18.80;1.00;;;;;;5036917;28;20234;-51
2022/07/23 04:01:13;;;;;;;13.23;11.90;;;18.80;1.00;;;;;;5038514;28;20186;-53
2022/07/23 04:03:39;;;;;;;12.30;11.30;;;18.90;1.00;;;;;;5050969;28;20186;-54
2022/07/23 04:06:05;;;;;;;11.73;10.83;;;19.00;1.00;;;;;;5041157;28;20187;-52
2022/07/23 04:08:31;;;;;;;12.00;11.13;;;18.90;1.00;;;;;;5047242;28;20421;-49
2022/07/23 04:10:56;;;;;;;12.50;11.50;;;18.90;1.00;;;;;;5043977;28;20442;-53
2022/07/23 04:13:22;;;;;;;12.50;11.50;;;18.90;1.00;;;;;;5047211;28;20206;-51
2022/07/23 04:15:47;;;;;;;12.20;10.90;;;19.00;1.00;;;;;;5039741;28;20646;-53
2022/07/23 04:18:13;;;;;;;12.30;11.20;;;18.90;1.00;;;;;;5031687;28;20250;-52
2022/07/23 04:20:39;;;;;;;13.07;11.97;;;18.90;1.00;;;;;;5040679;28;20713;-51
2022/07/23 04:23:04;;;;;;;12.23;11.10;;;18.90;1.00;;;;;;5032097;28;20186;-53
2022/07/23 04:25:30;;;;;;;11.80;11.00;;;18.90;1.00;;;;;;5045446;28;20537;-54
2022/07/23 04:27:55;;;;;;;11.37;10.57;;;19.00;1.00;;;;;;5040710;28;20240;-52
2022/07/23 04:30:21;;;;;;;11.10;10.30;;;19.00;1.00;;;;;;5045262;28;20605;-54
2022/07/23 04:32:46;;;;;;;11.67;10.33;;;19.10;1.00;;;;;;5034999;28;20206;-54
2022/07/23 04:35:12;;;;;;;11.37;10.43;;;19.20;1.00;;;;;;5040288;28;20642;-53
2022/07/23 04:37:38;;;;;;;10.17;9.33;;;19.20;1.00;;;;;;5028419;28;20271;-56
2022/07/23 04:40:04;;;;;;;10.77;9.97;;;19.40;1.00;;;;;;5037581;28;20190;-55
2022/07/23 04:42:30;;;;;;;10.73;9.90;;;19.40;1.00;;;;;;5031772;28;20183;-52
2022/07/23 04:44:55;;;;;;;10.47;9.73;;;19.50;1.00;;;;;;5032541;28;20422;-53
2022/07/23 04:47:21;;;;;;;10.53;9.67;;;19.70;1.00;;;;;;5035335;28;20198;-53
2022/07/23 04:49:46;;;;;;;11.00;10.20;;;19.70;1.00;;;;;;5044654;28;20179;-53
2022/07/23 04:52:12;;;;;;;11.00;10.20;;;19.80;1.00;;;;;;5024250;28;20245;-54
2022/07/23 04:54:37;;;;;;;9.80;9.10;;;19.80;1.00;;;;;;5028509;28;20180;-54
2022/07/23 04:57:03;;;;;;;10.80;10.00;;;19.80;1.00;;;;;;5030941;28;20262;-54
2022/07/23 04:59:28;;;;;;;10.83;9.90;;;19.90;1.00;;;;;;5031400;28;20230;-51
2022/07/23 05:01:54;;;;;;;11.27;10.20;;;19.90;1.00;;;;;;5032077;28;20258;-54
2022/07/23 05:04:20;;;;;;;10.47;9.63;;;20.00;1.00;;;;;;5043153;28;20186;-54
2022/07/23 05:06:45;;;;;;;11.13;9.83;;;20.10;1.00;;;;;;5036192;28;20245;-51
2022/07/23 05:09:11;;;;;;;9.60;8.90;;;20.10;1.00;;;;;;5041083;28;20187;-53
2022/07/23 05:11:36;;;;;;;10.33;9.53;;;20.20;1.00;;;;;;5039660;28;20180;-55
2022/07/23 05:14:02;;;;;;;10.90;9.90;;;20.30;1.00;;;;;;5049526;28;20214;-52
2022/07/23 05:16:28;;;;;;;10.40;9.60;;;20.30;1.00;;;;;;5035894;28;20564;-54
2022/07/23 05:18:53;;;;;;;10.60;9.80;;;20.30;1.00;;;;;;5037135;28;20181;-55
2022/07/23 05:21:19;;;;;;;10.90;9.97;;;20.40;1.00;;;;;;5034354;28;20171;-54
2022/07/23 05:23:45;;;;;;;10.00;9.30;;;20.50;1.00;;;;;;5047795;28;20701;-53
2022/07/23 05:26:11;;;;;;;10.70;9.90;;;20.60;1.00;;;;;;5037567;28;20287;-54
2022/07/23 05:28:36;;;;;;;11.00;10.10;;;20.60;1.00;;;;;;5044795;28;20218;-51
2022/07/23 05:31:03;;;;;;;10.30;9.60;;;20.70;1.00;;;;;;5027901;28;20207;-54
2022/07/23 05:33:30;;;;;;;10.30;9.50;;;20.90;1.00;;;;;;5032966;28;20294;-55
2022/07/23 05:36:02;;;;;;;10.57;9.73;;;20.90;1.00;;;;;;5037272;28;20419;-53
2022/07/23 05:38:28;;;;;;;9.87;9.07;;;20.90;1.00;;;;;;5045782;28;20486;-55
2022/07/23 05:40:54;;;;;;;10.37;9.67;;;20.90;1.00;;;;;;5035528;28;21042;-50
2022/07/23 05:43:19;;;;;;;9.63;8.83;;;21.00;1.00;;;;;;5031070;28;20443;-53
2022/07/23 05:45:45;;;;;;;9.87;9.03;;;21.00;1.00;;;;;;5031978;28;20198;-56
2022/07/23 05:48:11;;;;;;;10.70;10.00;;;21.00;1.00;;;;;;5028504;28;20198;-55
2022/07/23 05:50:36;;;;;;;10.20;9.50;;;21.00;1.00;;;;;;5040887;28;20188;-53
2022/07/23 05:53:02;;;;;;;9.90;9.10;;;21.00;1.00;;;;;;5046549;28;20214;-55
2022/07/23 05:55:31;;;;;;;10.70;10.00;;;21.10;1.00;;;;;;5031088;28;20766;-49
2022/07/23 05:57:57;;;;;;;10.17;9.37;;;21.10;1.00;;;;;;5033766;28;20180;-54
2022/07/23 06:00:23;;;;;;;10.47;9.67;;;21.10;1.00;;;;;;5027514;28;20481;-51
2022/07/23 06:02:49;;;;;;;10.37;9.57;;;21.20;1.00;;;;;;5040661;28;20943;-52
2022/07/23 06:05:14;;;;;;;9.57;8.90;;;21.20;1.00;;;;;;5039905;28;20443;-55
2022/07/23 06:07:40;;;;;;;10.03;9.33;;;21.20;1.00;;;;;;5030227;28;20676;-54
2022/07/23 06:10:06;;;;;;;9.90;9.00;;;21.20;1.00;;;;;;5031788;28;20188;-55
2022/07/23 06:12:32;;;;;;;9.43;8.57;;;21.30;99.90;;;;;;5027362;28;20209;-54
2022/07/23 06:14:57;;;;;;;10.07;9.27;;;21.20;99.90;;;;;;5042478;28;20426;-52
2022/07/23 06:17:23;;;;;;;9.43;8.77;;;21.10;1.00;;;;;;5032338;28;20259;-50
2022/07/23 06:19:49;;;;;;;10.20;9.40;;;21.00;1.00;;;;;;5034106;28;20186;-52
2022/07/23 06:22:14;;;;;;;9.47;8.77;;;21.00;1.00;;;;;;5029136;28;20156;-52
2022/07/23 06:24:40;;;;;;;9.87;9.03;;;20.90;1.00;;;;;;5030400;28;20240;-55
2022/07/23 06:27:05;;;;;;;9.90;9.03;;;20.80;1.00;;;;;;5041456;28;20175;-51
2022/07/23 06:29:31;;;;;;;9.20;8.50;;;20.70;1.00;;;;;;5028157;28;20588;-52
2022/07/23 06:31:57;;;;;;;10.07;9.37;;;20.70;1.00;;;;;;5023002;28;20196;-54
2022/07/23 06:34:23;;;;;;;10.50;9.57;;;20.50;1.00;;;;;;5021819;28;20230;-53
2022/07/23 06:36:48;;;;;;;10.10;9.40;;;20.40;1.00;;;;;;5020024;28;20476;-53
2022/07/23 06:39:14;;;;;;;10.20;9.40;;;20.40;1.00;;;;;;5034019;28;20197;-52
2022/07/23 06:41:40;;;;;;;11.40;10.47;;;20.20;1.00;;;;;;5034827;28;20187;-52
2022/07/23 06:44:05;;;;;;;11.40;10.43;;;20.10;1.00;;;;;;5031502;28;20197;-53
2022/07/23 06:46:31;;;;;;;11.03;10.13;;;20.00;1.00;;;;;;5027691;28;20526;-52
2022/07/23 06:48:57;;;;;;;10.80;10.00;;;19.90;1.00;;;;;;5026972;28;20183;-51
2022/07/23 06:51:23;;;;;;;10.57;9.67;;;20.00;1.00;;;;;;5024871;28;20441;-52
2022/07/23 06:53:48;;;;;;;9.90;9.07;;;20.10;1.00;;;;;;5021695;28;20213;-60
2022/07/23 06:56:14;;;;;;;10.47;9.57;;;20.20;1.00;;;;;;5023370;28;20172;-59
2022/07/23 06:58:41;;;;;;;10.97;10.17;;;20.40;1.00;;;;;;5031371;28;20236;-48
2022/07/23 07:01:08;;;;;;;9.77;9.07;;;20.50;1.00;;;;;;5032174;28;20179;-55
2022/07/23 07:03:34;;;;;;;10.30;9.50;;;20.60;1.00;;;;;;5046968;28;20438;-52
2022/07/23 07:06:00;;;;;;;10.60;9.80;;;20.80;1.00;;;;;;5042527;28;20444;-51
2022/07/23 07:08:25;;;;;;;10.47;9.60;;;20.80;1.00;;;;;;5031983;28;20179;-53
2022/07/23 07:10:51;;;;;;;10.47;9.77;;;20.80;1.00;;;;;;5040983;28;20216;-53
2022/07/23 07:13:16;;;;;;;11.10;10.30;;;20.80;1.00;;;;;;5042800;28;20984;-54
2022/07/23 07:15:42;;;;;;;10.77;10.00;;;20.80;1.00;;;;;;5035274;28;20574;-54
2022/07/23 07:18:07;;;;;;;10.67;9.77;;;20.80;1.00;;;;;;5024307;28;20190;-60
2022/07/23 07:20:33;;;;;;;10.30;9.60;;;20.80;1.00;;;;;;5045653;28;20182;-60
2022/07/23 07:22:59;;;;;;;12.63;11.43;;;21.00;1.00;;;;;;5051006;28;20267;-59
2022/07/23 07:25:25;;;;;;;10.93;10.07;;;21.20;99.90;;;;;;5036491;28;20193;-60
2022/07/23 07:27:50;;;;;;;11.73;10.93;;;21.50;99.90;;;;;;5041668;28;20245;-59
2022/07/23 07:30:16;;;;;;;10.93;10.13;;;21.60;99.90;;;;;;5030943;28;20585;-59
2022/07/23 07:32:42;;;;;;;11.57;10.77;;;21.70;1.70;;;;;;5037660;28;20208;-60
2022/07/23 07:35:08;;;;;;;11.80;10.90;;;21.80;1.00;;;;;;5030105;28;20177;-59
2022/07/23 07:37:34;;;;;;;10.97;10.17;;;22.00;1.00;;;;;;5048885;28;20438;-59
2022/07/23 07:39:59;;;;;;;10.70;10.00;;;22.10;99.90;;;;;;5040859;28;20429;-60
2022/07/23 07:42:26;;;;;;;11.53;10.73;;;22.20;1.00;;;;;;5033207;28;20205;-58
2022/07/23 07:44:52;;;;;;;10.50;9.80;;;22.20;99.90;;;;;;5036292;28;20187;-58
2022/07/23 07:47:18;;;;;;;10.93;10.13;;;22.50;1.00;;;;;;5031971;28;20848;-59
2022/07/23 07:49:43;;;;;;;12.10;11.30;;;22.60;1.00;;;;;;5031890;28;20671;-58
2022/07/23 07:52:10;;;;;;;11.03;10.33;;;22.90;1.00;;;;;;5025622;28;20665;-59
2022/07/23 07:54:35;;;;;;;11.30;10.50;;;23.20;1.00;;;;;;5021082;28;20214;-59
2022/07/23 07:57:01;;;;;;;10.97;10.10;;;23.40;1.00;;;;;;5032744;28;20441;-60
2022/07/23 07:59:27;;;;;;;10.77;9.90;;;23.30;1.00;;;;;;5038480;28;20515;-59
2022/07/23 08:01:52;;;;;;;10.13;9.43;;;23.30;99.90;;;;;;5036216;28;21285;-60
2022/07/23 08:04:18;;;;;;;10.50;9.83;;;23.30;99.90;;;;;;5041766;28;20279;-59
2022/07/23 08:06:44;;;;;;;10.03;9.30;;;23.40;1.00;;;;;;5035484;28;20194;-60
2022/07/23 08:09:09;;;;;;;10.23;9.40;;;23.70;8.00;;;;;;5039021;28;20856;-60
2022/07/23 08:11:35;;;;;;;10.27;9.67;;;24.00;99.90;;;;;;5034623;28;20182;-60
2022/07/23 08:14:01;;;;;;;9.80;9.20;;;24.20;99.90;;;;;;5041043;28;20238;-60
2022/07/23 08:16:26;;;;;;;10.60;9.70;;;24.30;1.00;;;;;;5036193;28;20216;-61
2022/07/23 08:18:52;;;;;;;10.10;9.40;;;24.50;99.90;;;;;;5031261;28;20278;-61
2022/07/23 08:21:18;;;;;;;9.80;9.20;;;24.60;1.00;;;;;;5028631;28;20184;-60
2022/07/23 08:23:43;;;;;;;9.93;9.33;;;24.80;99.90;;;;;;5032005;28;20190;-61
2022/07/23 08:26:09;;;;;;;10.00;9.40;;;25.00;99.90;;;;;;5045759;28;20189;-61
2022/07/23 08:28:34;;;;;;;10.80;10.10;;;25.30;1.00;;;;;;5030935;28;20193;-60
2022/07/23 08:31:01;;;;;;;9.97;9.37;;;25.50;1.00;;;;;;5046268;28;20187;-60
2022/07/23 08:33:26;;;;;;;9.30;8.70;;;25.60;1.00;;;;;;5035423;28;20317;-61
2022/07/23 08:35:52;;;;;;;9.90;9.30;;;25.60;1.00;;;;;;5048832;28;20995;-60
2022/07/23 08:38:22;;;;;;;9.27;8.67;;;25.80;1.00;;;;;;5031697;28;20269;-61
2022/07/23 08:40:53;;;;;;;10.03;9.33;;;25.90;1.00;;;;;;5045299;28;21257;-60
2022/07/23 08:43:28;;;;;;;10.80;9.30;;;25.80;1.00;;;;;;5038594;28;20560;-61
2022/07/23 08:45:56;;;;;;;10.50;9.80;;;25.90;1.00;;;;;;5048221;28;20414;-60
2022/07/23 08:48:27;;;;;;;9.77;9.17;;;26.10;1.00;;;;;;5038437;28;20414;-61
2022/07/23 08:51:04;;;;;;;10.73;9.93;;;26.20;1.00;;;;;;5030904;28;20914;-61
2022/07/23 08:53:30;;;;;;;10.57;9.97;;;26.10;1.00;;;;;;5042833;28;20490;-60
2022/07/23 08:56:03;;;;;;;11.10;10.40;;;26.10;1.00;;;;;;5039843;28;20465;-61
2022/07/23 08:58:30;;;;;;;10.13;9.43;;;26.00;1.00;;;;;;5047355;28;20464;-62
2022/07/23 09:00:56;;;;;;;9.77;9.10;;;26.10;1.00;;;;;;5040303;28;20439;-61
2022/07/23 09:03:33;;;;;;;9.53;8.87;;;26.10;1.00;;;;;;5028425;28;20439;-61
2022/07/23 09:06:01;;;;;;;10.40;9.70;;;26.40;1.00;;;;;;5026129;28;20437;-59
2022/07/23 09:08:37;;;;;;;10.60;10.00;;;26.60;1.00;;;;;;5029562;28;20462;-61
2022/07/23 09:11:16;;;;;;;10.40;9.70;;;26.50;99.90;;;;;;5031074;28;20506;-61
2022/07/23 09:13:49;;;;;;;11.10;10.30;;;26.50;99.90;;;;;;5033915;28;20465;-61
2022/07/23 09:16:33;;;;;;;10.50;9.80;;;26.40;99.90;;;;;;5044909;28;20436;-62
2022/07/23 09:19:01;;;;;;;10.77;10.03;;;26.20;99.90;;;;;;5026247;28;20481;-61
2022/07/23 09:21:30;;;;;;;10.93;10.13;;;26.30;99.90;;;;;;5037514;28;21218;-61
2022/07/23 09:24:07;;;;;;;10.83;10.13;;;26.30;99.90;;;;;;5045444;28;20517;-61
2022/07/23 09:26:34;;;;;;;9.67;9.07;;;26.70;99.90;;;;;;5040641;28;21198;-62
2022/07/23 09:29:01;;;;;;;11.60;10.90;;;27.10;99.90;;;;;;5036627;28;20428;-62
2022/07/23 09:31:42;;;;;;;10.53;9.63;;;27.30;99.90;;;;;;5036259;28;20834;-61
2022/07/23 09:34:30;;;;;;;12.43;11.43;;;27.70;99.90;;;;;;5042676;28;20463;-62
2022/07/23 09:36:58;;;;;;;11.90;11.20;;;27.40;99.90;;;;;;5026355;28;20437;-59
2022/07/23 09:39:33;;;;;;;11.13;10.43;;;27.40;99.90;;;;;;5023998;28;20434;-61
2022/07/23 09:42:16;;;;;;;10.40;9.70;;;27.60;99.90;;;;;;5032485;28;20429;-61
2022/07/23 09:44:44;;;;;;;11.00;10.10;;;27.90;99.90;;;;;;5040887;28;20429;-61
2022/07/23 09:47:10;;;;;;;10.93;10.23;;;28.10;99.90;;;;;;5032886;28;20864;-62
2022/07/23 09:49:35;;;;;;;10.13;9.50;;;28.00;99.90;;;;;;5033871;28;20503;-61
2022/07/23 09:52:02;;;;;;;11.40;10.50;;;27.70;99.90;;;;;;5035142;28;20281;-61
2022/07/23 09:54:39;;;;;;;11.30;10.60;;;27.60;99.90;;;;;;5027568;28;20203;-62
2022/07/23 09:57:14;;;;;;;9.93;9.30;;;27.50;99.90;;;;;;5046093;28;20417;-61
2022/07/23 09:59:42;;;;;;;10.00;9.40;;;27.40;99.90;;;;;;5032976;28;20476;-60
2022/07/23 10:02:12;;;;;;;10.17;9.47;;;27.40;99.90;;;;;;5037793;28;20468;-61
2022/07/23 10:04:38;;;;;;;10.40;9.80;;;27.70;99.90;;;;;;5033443;28;20429;-61
2022/07/23 10:07:07;;;;;;;10.63;9.70;;;27.60;99.90;;;;;;5040615;28;20811;-58
2022/07/23 10:09:36;;;;;;;10.40;9.60;;;27.40;99.90;;;;;;5028469;28;20433;-61
2022/07/23 10:14:40;;;;;;;10.43;9.83;;;27.50;99.90;;;;;;5023395;28;20541;-61
2022/07/23 10:17:07;;;;;;;11.67;10.77;;;27.60;99.90;;;;;;5027431;28;20461;-61
2022/07/23 10:19:33;;;;;;;11.23;10.50;;;27.60;99.90;;;;;;5034293;28;20437;-61
2022/07/23 10:22:02;;;;;;;10.70;10.10;;;27.90;99.90;;;;;;5027429;28;20439;-61
2022/07/23 10:24:46;;;;;;;11.30;10.43;;;28.20;99.90;;;;;;5045750;28;20194;-61
2022/07/23 10:27:42;;;;;;;11.37;10.37;;;28.50;99.90;;;;;;5023576;28;20828;-61
2022/07/23 10:30:25;;;;;;;10.50;9.90;;;28.70;99.90;;;;;;5026083;28;21413;-62
2022/07/23 10:33:20;;;;;;;12.03;11.20;;;28.80;99.90;;;;;;5014994;28;20558;-61
2022/07/23 10:36:06;;;;;;;10.67;10.07;;;28.70;99.90;;;;;;5036454;28;20448;-60
2022/07/23 10:38:55;;;;;;;11.90;10.73;;;28.50;99.90;;;;;;5025893;28;20511;-60
2022/07/23 10:41:36;;;;;;;11.70;11.00;;;28.40;99.90;;;;;;5034214;28;20538;-60
2022/07/23 10:44:13;;;;;;;11.23;10.53;;;28.40;99.90;;;;;;5031967;28;20486;-61
2022/07/23 10:47:43;;;;;;;11.37;10.60;;;28.20;99.90;;;;;;5028752;28;20441;-62
2022/07/23 10:49:50;;;;;;;11.83;11.07;;;28.00;99.90;;;;;;5036799;28;20480;-61
2022/07/23 10:52:21;;;;;;;11.40;10.60;;;27.80;99.90;;;;;;5040364;28;20939;-61
2022/07/23 10:54:53;;;;;;;11.80;11.00;;;28.00;99.90;;;;;;5048079;28;20452;-61
2022/07/23 10:57:27;;;;;;;11.60;10.90;;;28.20;99.90;;;;;;5029387;28;20429;-61
2022/07/23 11:02:34;;;;;;;12.83;11.93;;;28.10;99.90;;;;;;5028066;28;21022;-60
2022/07/23 11:05:11;;;;;;;10.97;10.27;;;28.20;99.90;;;;;;5028798;28;20432;-61
2022/07/23 11:07:57;;;;;;;11.50;10.80;;;28.40;99.90;;;;;;5041926;28;20934;-61
2022/07/23 11:10:48;;;;;;;11.47;10.77;;;28.60;99.90;;;;;;5036782;28;20471;-60
2022/07/23 11:13:26;;;;;;;11.77;11.07;;;28.50;99.90;;;;;;5030611;28;20849;-61
2022/07/23 11:16:00;;;;;;;11.10;10.40;;;28.60;99.90;;;;;;5033650;28;20486;-61
2022/07/23 11:18:46;;;;;;;11.40;10.60;;;28.70;99.90;;;;;;5027500;28;20417;-61
2022/07/23 11:21:21;;;;;;;10.13;9.53;;;28.90;99.90;;;;;;5043177;28;20429;-62
2022/07/23 11:24:08;;;;;;;11.80;11.00;;;28.80;99.90;;;;;;5032251;28;20452;-62
2022/07/23 11:26:45;;;;;;;10.20;9.43;;;29.10;99.90;;;;;;5031108;28;21246;-61
2022/07/23 11:29:26;;;;;;;11.53;10.73;;;29.20;99.90;;;;;;5028462;28;20434;-61
2022/07/23 11:31:55;;;;;;;11.10;10.30;;;29.10;99.90;;;;;;5033269;28;20451;-61
2022/07/23 11:34:40;;;;;;;10.53;9.73;;;29.10;99.90;;;;;;5028251;28;21271;-61
2022/07/23 11:37:11;;;;;;;11.10;10.40;;;29.30;99.90;;;;;;5026529;28;20576;-61
2022/07/23 11:39:37;;;;;;;11.07;10.37;;;29.20;99.90;;;;;;5028566;28;20450;-61
2022/07/23 11:42:06;;;;;;;11.47;10.73;;;29.20;99.90;;;;;;5029063;28;21022;-61
2022/07/23 11:44:36;;;;;;;11.00;10.10;;;28.90;99.90;;;;;;5030545;28;20469;-61
2022/07/23 11:47:04;;;;;;;10.50;9.90;;;28.50;99.90;;;;;;5026233;28;20922;-60
2022/07/23 11:49:30;;;;;;;10.73;10.13;;;28.30;99.90;;;;;;5029070;28;20480;-61
2022/07/23 11:52:22;;;;;;;11.57;10.77;;;28.30;99.90;;;;;;5031762;28;20911;-61
2022/07/23 11:54:55;;;;;;;11.37;10.37;;;27.90;99.90;;;;;;5018815;28;20838;-61
2022/07/23 11:57:25;;;;;;;10.87;10.10;;;27.80;99.90;;;;;;5019661;28;20902;-61
2022/07/23 11:59:54;;;;;;;10.17;9.47;;;27.40;99.90;;;;;;5018916;28;20470;-61
2022/07/23 12:02:21;;;;;;;10.70;10.03;;;27.40;99.90;;;;;;5011027;28;20438;-61
2022/07/23 12:04:49;;;;;;;11.50;10.60;;;27.30;99.90;;;;;;5018660;28;20947;-61
2022/07/23 12:07:49;;;;;;;11.70;10.90;;;27.10;99.90;;;;;;5021735;28;20423;-61
2022/07/23 12:10:20;;;;;;;11.00;10.20;;;27.00;99.90;;;;;;5016675;28;21419;-61
2022/07/23 12:12:55;;;;;;;11.20;10.50;;;27.10;99.90;;;;;;5023709;28;21435;-62
2022/07/23 12:15:31;;;;;;;10.47;9.80;;;26.90;99.90;;;;;;5009468;28;20474;-61
2022/07/23 12:17:57;;;;;;;10.83;10.13;;;26.70;99.90;;;;;;5031537;28;20436;-61
2022/07/23 12:20:28;;;;;;;11.63;10.93;;;26.70;99.90;;;;;;5025291;28;20437;-61
2022/07/23 12:23:00;;;;;;;11.43;10.63;;;26.60;99.90;;;;;;5026260;28;20948;-61
2022/07/23 12:25:29;;;;;;;11.73;10.93;;;26.50;99.90;;;;;;5025046;28;20448;-61
2022/07/23 12:28:04;;;;;;;11.97;11.17;;;26.30;99.90;;;;;;5025517;28;20830;-60
2022/07/23 12:30:38;;;;;;;12.73;11.73;;;26.10;99.90;;;;;;5026299;28;20431;-60
2022/07/23 12:33:05;;;;;;;13.73;12.63;;;25.90;1.00;;;;;;5030464;28;20463;-60
2022/07/23 12:35:34;;;;;;;13.17;12.27;;;25.70;1.00;;;;;;5032007;28;20460;-61
2022/07/23 12:38:03;;;;;;;13.20;12.30;;;25.70;1.00;;;;;;5031540;28;20417;-61
2022/07/23 12:40:49;;;;;;;13.27;12.27;;;25.60;1.00;;;;;;5025749;28;20446;-62
2022/07/23 12:43:38;;;;;;;12.33;11.50;;;25.60;1.00;;;;;;5028724;28;20454;-60
2022/07/23 12:46:08;;;;;;;12.60;11.60;;;25.80;1.00;;;;;;5031953;28;20458;-61
2022/07/23 12:48:36;;;;;;;13.20;12.10;;;25.90;1.00;;;;;;5036136;28;20432;-61
2022/07/23 12:51:05;;;;;;;11.23;10.43;;;26.00;1.00;;;;;;5031090;28;21038;-61